sensor_id;sensor_type;location;lat;lon;timestamp;P1;durP1;ratioP1;P2;durP2;ratioP2
54787;SDS011;59598;48.112;16.280;2022-09-20T00:00:35;2.83;;;1.48;;
54787;SDS011;59598;48.112;16.280;2022-09-20T00:05:45;2.05;;;1.42;;
54787;SDS011;59598;48.112;16.280;2022-09-20T00:08:17;2.53;;;1.50;;
54787;SDS011;59598;48.112;16.280;2022-09-20T00:13:34;1.88;;;1.42;;
54787;SDS011;59598;48.112;16.280;2022-09-20T00:16:10;1.73;;;1.58;;
54787;SDS011;59598;48.112;16.280;2022-09-20T00:18:51;1.20;;;1.10;;
54787;SDS011;59598;48.112;16.280;2022-09-20T00:21:27;1.60;;;1.50;;
54787;SDS011;59598;48.112;16.280;2022-09-20T00:24:04;1.67;;;1.48;;
54787;SDS011;59598;48.112;16.280;2022-09-20T00:26:35;1.77;;;1.52;;
54787;SDS011;59598;48.112;16.280;2022-09-20T00:31:42;1.85;;;1.42;;
54787;SDS011;59598;48.112;16.280;2022-09-20T00:34:21;1.90;;;1.40;;
54787;SDS011;59598;48.112;16.280;2022-09-20T00:37:11;2.20;;;1.42;;
54787;SDS011;59598;48.112;16.280;2022-09-20T00:42:17;1.73;;;1.23;;
54787;SDS011;59598;48.112;16.280;2022-09-20T00:44:52;2.08;;;1.45;;
54787;SDS011;59598;48.112;16.280;2022-09-20T00:50:43;2.30;;;1.27;;
54787;SDS011;59598;48.112;16.280;2022-09-20T00:56:09;2.80;;;1.20;;
54787;SDS011;59598;48.112;16.280;2022-09-20T00:59:13;1.70;;;1.20;;
54787;SDS011;59598;48.112;16.280;2022-09-20T01:01:50;2.20;;;1.40;;
54787;SDS011;59598;48.112;16.280;2022-09-20T01:04:29;1.45;;;1.35;;
54787;SDS011;59598;48.112;16.280;2022-09-20T01:07:04;3.05;;;1.45;;
54787;SDS011;59598;48.112;16.280;2022-09-20T01:09:39;1.20;;;1.10;;
54787;SDS011;59598;48.112;16.280;2022-09-20T01:14:49;2.10;;;1.33;;
54787;SDS011;59598;48.112;16.280;2022-09-20T01:17:24;1.27;;;1.17;;
54787;SDS011;59598;48.112;16.280;2022-09-20T01:28:40;2.05;;;1.33;;
54787;SDS011;59598;48.112;16.280;2022-09-20T01:37:23;1.65;;;1.40;;
54787;SDS011;59598;48.112;16.280;2022-09-20T01:43:39;1.38;;;1.00;;
54787;SDS011;59598;48.112;16.280;2022-09-20T01:56:06;1.58;;;1.48;;
54787;SDS011;59598;48.112;16.280;2022-09-20T02:10:45;1.55;;;1.40;;
54787;SDS011;59598;48.112;16.280;2022-09-20T02:25:28;1.02;;;1.00;;
54787;SDS011;59598;48.112;16.280;2022-09-20T02:28:30;2.92;;;1.63;;
54787;SDS011;59598;48.112;16.280;2022-09-20T02:43:57;2.80;;;0.93;;
54787;SDS011;59598;48.112;16.280;2022-09-20T02:53:31;3.42;;;1.80;;
54787;SDS011;59598;48.112;16.280;2022-09-20T02:56:39;2.22;;;2.03;;
54787;SDS011;59598;48.112;16.280;2022-09-20T02:59:45;2.25;;;1.80;;
54787;SDS011;59598;48.112;16.280;2022-09-20T03:02:45;2.47;;;2.05;;
54787;SDS011;59598;48.112;16.280;2022-09-20T03:12:56;2.08;;;1.75;;
54787;SDS011;59598;48.112;16.280;2022-09-20T03:15:28;2.40;;;1.52;;
54787;SDS011;59598;48.112;16.280;2022-09-20T03:18:16;3.00;;;2.10;;
54787;SDS011;59598;48.112;16.280;2022-09-20T03:21:07;2.25;;;2.05;;
54787;SDS011;59598;48.112;16.280;2022-09-20T03:36:54;4.05;;;2.00;;
54787;SDS011;59598;48.112;16.280;2022-09-20T03:46:17;2.45;;;2.25;;
54787;SDS011;59598;48.112;16.280;2022-09-20T03:55:30;4.78;;;2.30;;
54787;SDS011;59598;48.112;16.280;2022-09-20T04:01:26;2.25;;;1.92;;
54787;SDS011;59598;48.112;16.280;2022-09-20T04:13:37;3.15;;;2.75;;
54787;SDS011;59598;48.112;16.280;2022-09-20T04:17:29;2.45;;;2.10;;
54787;SDS011;59598;48.112;16.280;2022-09-20T04:19:49;3.03;;;1.90;;
54787;SDS011;59598;48.112;16.280;2022-09-20T04:22:54;3.05;;;2.13;;
54787;SDS011;59598;48.112;16.280;2022-09-20T04:25:39;2.35;;;1.90;;
54787;SDS011;59598;48.112;16.280;2022-09-20T04:28:24;1.98;;;1.77;;
54787;SDS011;59598;48.112;16.280;2022-09-20T04:34:24;1.88;;;1.58;;
54787;SDS011;59598;48.112;16.280;2022-09-20T04:37:35;2.10;;;1.85;;
54787;SDS011;59598;48.112;16.280;2022-09-20T04:40:11;1.70;;;1.60;;
54787;SDS011;59598;48.112;16.280;2022-09-20T04:49:58;1.80;;;1.55;;
54787;SDS011;59598;48.112;16.280;2022-09-20T04:56:34;1.55;;;1.42;;
54787;SDS011;59598;48.112;16.280;2022-09-20T05:05:57;2.10;;;1.65;;
54787;SDS011;59598;48.112;16.280;2022-09-20T05:09:29;2.55;;;1.73;;
54787;SDS011;59598;48.112;16.280;2022-09-20T05:19:45;1.83;;;1.63;;
54787;SDS011;59598;48.112;16.280;2022-09-20T05:29:13;1.83;;;1.65;;
54787;SDS011;59598;48.112;16.280;2022-09-20T05:41:17;1.90;;;1.70;;
54787;SDS011;59598;48.112;16.280;2022-09-20T05:50:46;2.17;;;1.80;;
54787;SDS011;59598;48.112;16.280;2022-09-20T05:56:38;2.60;;;1.85;;
54787;SDS011;59598;48.112;16.280;2022-09-20T06:02:31;2.47;;;1.58;;
54787;SDS011;59598;48.112;16.280;2022-09-20T06:05:15;3.05;;;1.73;;
54787;SDS011;59598;48.112;16.280;2022-09-20T06:11:17;2.50;;;1.70;;
54787;SDS011;59598;48.112;16.280;2022-09-20T06:17:16;3.25;;;2.00;;
54787;SDS011;59598;48.112;16.280;2022-09-20T06:22:58;5.10;;;1.90;;
54787;SDS011;59598;48.112;16.280;2022-09-20T06:28:19;3.42;;;1.70;;
54787;SDS011;59598;48.112;16.280;2022-09-20T06:30:58;2.15;;;1.95;;
54787;SDS011;59598;48.112;16.280;2022-09-20T06:37:41;2.53;;;1.98;;
54787;SDS011;59598;48.112;16.280;2022-09-20T06:40:41;2.33;;;2.08;;
54787;SDS011;59598;48.112;16.280;2022-09-20T06:43:37;2.90;;;1.83;;
54787;SDS011;59598;48.112;16.280;2022-09-20T06:46:12;2.05;;;1.83;;
54787;SDS011;59598;48.112;16.280;2022-09-20T06:48:45;2.30;;;2.03;;
54787;SDS011;59598;48.112;16.280;2022-09-20T06:51:16;1.95;;;1.50;;
54787;SDS011;59598;48.112;16.280;2022-09-20T06:53:49;1.90;;;1.70;;
54787;SDS011;59598;48.112;16.280;2022-09-20T06:56:21;2.70;;;1.90;;
54787;SDS011;59598;48.112;16.280;2022-09-20T06:58:56;2.13;;;1.88;;
54787;SDS011;59598;48.112;16.280;2022-09-20T07:01:30;2.65;;;1.77;;
54787;SDS011;59598;48.112;16.280;2022-09-20T07:06:37;1.98;;;1.50;;
54787;SDS011;59598;48.112;16.280;2022-09-20T07:09:09;2.28;;;1.70;;
54787;SDS011;59598;48.112;16.280;2022-09-20T07:11:42;1.92;;;1.75;;
54787;SDS011;59598;48.112;16.280;2022-09-20T07:14:18;2.70;;;1.80;;
54787;SDS011;59598;48.112;16.280;2022-09-20T07:16:58;4.30;;;1.77;;
54787;SDS011;59598;48.112;16.280;2022-09-20T07:19:29;2.10;;;1.90;;
54787;SDS011;59598;48.112;16.280;2022-09-20T07:22:01;2.83;;;1.63;;
54787;SDS011;59598;48.112;16.280;2022-09-20T07:24:32;1.88;;;1.77;;
54787;SDS011;59598;48.112;16.280;2022-09-20T07:27:08;1.65;;;1.50;;
54787;SDS011;59598;48.112;16.280;2022-09-20T07:29:41;1.30;;;1.20;;
54787;SDS011;59598;48.112;16.280;2022-09-20T07:32:12;2.35;;;1.80;;
54787;SDS011;59598;48.112;16.280;2022-09-20T07:34:49;1.67;;;1.58;;
54787;SDS011;59598;48.112;16.280;2022-09-20T07:37:22;2.17;;;1.90;;
54787;SDS011;59598;48.112;16.280;2022-09-20T07:39:56;3.75;;;2.13;;
54787;SDS011;59598;48.112;16.280;2022-09-20T07:42:29;3.05;;;1.92;;
54787;SDS011;59598;48.112;16.280;2022-09-20T07:45:08;4.60;;;2.13;;
54787;SDS011;59598;48.112;16.280;2022-09-20T07:47:43;4.32;;;2.10;;
54787;SDS011;59598;48.112;16.280;2022-09-20T07:50:16;2.83;;;1.83;;
54787;SDS011;59598;48.112;16.280;2022-09-20T07:52:49;4.65;;;1.90;;
54787;SDS011;59598;48.112;16.280;2022-09-20T07:55:20;2.15;;;1.95;;
54787;SDS011;59598;48.112;16.280;2022-09-20T07:57:57;2.90;;;1.90;;
54787;SDS011;59598;48.112;16.280;2022-09-20T08:00:36;2.00;;;1.90;;
54787;SDS011;59598;48.112;16.280;2022-09-20T08:03:10;2.13;;;1.92;;
54787;SDS011;59598;48.112;16.280;2022-09-20T08:05:41;2.38;;;1.63;;
54787;SDS011;59598;48.112;16.280;2022-09-20T08:08:16;2.10;;;1.93;;
54787;SDS011;59598;48.112;16.280;2022-09-20T08:10:48;2.10;;;1.90;;
54787;SDS011;59598;48.112;16.280;2022-09-20T08:13:25;1.90;;;1.70;;
54787;SDS011;59598;48.112;16.280;2022-09-20T08:16:01;1.73;;;1.58;;
54787;SDS011;59598;48.112;16.280;2022-09-20T08:18:38;2.17;;;1.85;;
54787;SDS011;59598;48.112;16.280;2022-09-20T08:21:18;1.70;;;1.60;;
54787;SDS011;59598;48.112;16.280;2022-09-20T08:23:53;2.60;;;1.63;;
54787;SDS011;59598;48.112;16.280;2022-09-20T08:26:33;1.52;;;1.40;;
54787;SDS011;59598;48.112;16.280;2022-09-20T08:29:05;2.78;;;1.90;;
54787;SDS011;59598;48.112;16.280;2022-09-20T08:31:41;1.70;;;1.60;;
54787;SDS011;59598;48.112;16.280;2022-09-20T08:34:16;3.45;;;2.05;;
54787;SDS011;59598;48.112;16.280;2022-09-20T08:36:48;1.90;;;1.77;;
54787;SDS011;59598;48.112;16.280;2022-09-20T08:39:26;1.90;;;1.65;;
54787;SDS011;59598;48.112;16.280;2022-09-20T08:47:28;1.90;;;1.73;;
54787;SDS011;59598;48.112;16.280;2022-09-20T08:50:09;1.60;;;1.50;;
54787;SDS011;59598;48.112;16.280;2022-09-20T08:52:48;3.50;;;1.73;;
54787;SDS011;59598;48.112;16.280;2022-09-20T08:55:26;3.70;;;1.35;;
54787;SDS011;59598;48.112;16.280;2022-09-20T08:58:02;1.65;;;1.50;;
54787;SDS011;59598;48.112;16.280;2022-09-20T09:00:39;2.88;;;1.23;;
54787;SDS011;59598;48.112;16.280;2022-09-20T09:03:21;2.85;;;1.52;;
54787;SDS011;59598;48.112;16.280;2022-09-20T09:05:53;1.27;;;1.20;;
54787;SDS011;59598;48.112;16.280;2022-09-20T09:08:34;3.05;;;1.60;;
54787;SDS011;59598;48.112;16.280;2022-09-20T09:11:14;3.90;;;1.45;;
54787;SDS011;59598;48.112;16.280;2022-09-20T09:13:58;4.10;;;1.60;;
54787;SDS011;59598;48.112;16.280;2022-09-20T09:16:55;1.50;;;1.40;;
54787;SDS011;59598;48.112;16.280;2022-09-20T09:19:28;2.20;;;1.48;;
54787;SDS011;59598;48.112;16.280;2022-09-20T09:22:03;3.30;;;1.20;;
54787;SDS011;59598;48.112;16.280;2022-09-20T09:24:36;1.55;;;1.45;;
54787;SDS011;59598;48.112;16.280;2022-09-20T09:27:14;1.60;;;1.50;;
54787;SDS011;59598;48.112;16.280;2022-09-20T09:29:49;1.50;;;1.40;;
54787;SDS011;59598;48.112;16.280;2022-09-20T09:32:25;3.15;;;1.38;;
54787;SDS011;59598;48.112;16.280;2022-09-20T09:35:24;2.03;;;1.33;;
54787;SDS011;59598;48.112;16.280;2022-09-20T09:38:03;1.23;;;1.17;;
54787;SDS011;59598;48.112;16.280;2022-09-20T09:40:52;1.40;;;1.30;;
54787;SDS011;59598;48.112;16.280;2022-09-20T09:43:35;2.75;;;1.50;;
54787;SDS011;59598;48.112;16.280;2022-09-20T09:46:21;4.10;;;1.60;;
54787;SDS011;59598;48.112;16.280;2022-09-20T09:49:13;1.52;;;1.42;;
54787;SDS011;59598;48.112;16.280;2022-09-20T09:52:01;1.15;;;1.15;;
54787;SDS011;59598;48.112;16.280;2022-09-20T09:54:37;1.52;;;1.38;;
54787;SDS011;59598;48.112;16.280;2022-09-20T09:57:35;1.48;;;1.30;;
54787;SDS011;59598;48.112;16.280;2022-09-20T10:00:35;1.13;;;1.13;;
54787;SDS011;59598;48.112;16.280;2022-09-20T10:09:03;1.40;;;1.25;;
54787;SDS011;59598;48.112;16.280;2022-09-20T10:12:01;3.10;;;1.75;;
54787;SDS011;59598;48.112;16.280;2022-09-20T10:21:15;3.22;;;1.58;;
54787;SDS011;59598;48.112;16.280;2022-09-20T10:24:30;1.60;;;1.50;;
54787;SDS011;59598;48.112;16.280;2022-09-20T10:27:34;2.00;;;1.52;;
54787;SDS011;59598;48.112;16.280;2022-09-20T10:30:55;4.35;;;1.30;;
54787;SDS011;59598;48.112;16.280;2022-09-20T10:34:06;1.75;;;1.50;;
54787;SDS011;59598;48.112;16.280;2022-09-20T10:36:59;4.65;;;1.52;;
54787;SDS011;59598;48.112;16.280;2022-09-20T10:39:35;1.60;;;1.48;;
54787;SDS011;59598;48.112;16.280;2022-09-20T10:43:15;2.10;;;1.40;;
54787;SDS011;59598;48.112;16.280;2022-09-20T10:48:55;1.42;;;1.13;;
54787;SDS011;59598;48.112;16.280;2022-09-20T10:55:16;5.10;;;1.38;;
54787;SDS011;59598;48.112;16.280;2022-09-20T11:09:52;1.55;;;1.40;;
54787;SDS011;59598;48.112;16.280;2022-09-20T11:12:38;1.73;;;1.63;;
54787;SDS011;59598;48.112;16.280;2022-09-20T11:15:29;2.03;;;1.60;;
54787;SDS011;59598;48.112;16.280;2022-09-20T11:18:22;2.13;;;1.50;;
54787;SDS011;59598;48.112;16.280;2022-09-20T11:27:38;1.27;;;1.10;;
54787;SDS011;59598;48.112;16.280;2022-09-20T11:30:23;3.30;;;0.90;;
54787;SDS011;59598;48.112;16.280;2022-09-20T11:33:04;5.35;;;1.38;;
54787;SDS011;59598;48.112;16.280;2022-09-20T11:35:45;5.88;;;1.50;;
54787;SDS011;59598;48.112;16.280;2022-09-20T11:43:59;1.20;;;1.10;;
54787;SDS011;59598;48.112;16.280;2022-09-20T11:46:52;1.88;;;1.48;;
54787;SDS011;59598;48.112;16.280;2022-09-20T11:49:37;1.75;;;1.17;;
54787;SDS011;59598;48.112;16.280;2022-09-20T11:55:59;1.73;;;1.40;;
54787;SDS011;59598;48.112;16.280;2022-09-20T11:58:48;1.92;;;1.35;;
54787;SDS011;59598;48.112;16.280;2022-09-20T12:01:33;3.25;;;1.23;;
54787;SDS011;59598;48.112;16.280;2022-09-20T12:04:13;1.25;;;1.15;;
54787;SDS011;59598;48.112;16.280;2022-09-20T12:07:14;1.10;;;1.00;;
54787;SDS011;59598;48.112;16.280;2022-09-20T12:09:58;1.23;;;1.13;;
54787;SDS011;59598;48.112;16.280;2022-09-20T12:12:57;2.40;;;1.13;;
54787;SDS011;59598;48.112;16.280;2022-09-20T12:15:39;2.25;;;1.00;;
54787;SDS011;59598;48.112;16.280;2022-09-20T12:21:06;1.00;;;1.00;;
54787;SDS011;59598;48.112;16.280;2022-09-20T12:26:34;1.73;;;1.00;;
54787;SDS011;59598;48.112;16.280;2022-09-20T12:29:49;2.35;;;1.15;;
54787;SDS011;59598;48.112;16.280;2022-09-20T12:32:40;1.23;;;1.13;;
54787;SDS011;59598;48.112;16.280;2022-09-20T12:35:50;4.10;;;1.30;;
54787;SDS011;59598;48.112;16.280;2022-09-20T12:41:07;1.55;;;1.23;;
54787;SDS011;59598;48.112;16.280;2022-09-20T12:44:02;1.13;;;1.08;;
54787;SDS011;59598;48.112;16.280;2022-09-20T12:56:28;0.98;;;0.90;;
54787;SDS011;59598;48.112;16.280;2022-09-20T12:59:22;2.28;;;1.27;;
54787;SDS011;59598;48.112;16.280;2022-09-20T13:02:39;1.25;;;1.13;;
54787;SDS011;59598;48.112;16.280;2022-09-20T13:05:42;1.23;;;1.00;;
54787;SDS011;59598;48.112;16.280;2022-09-20T13:08:22;3.45;;;1.05;;
54787;SDS011;59598;48.112;16.280;2022-09-20T13:11:10;1.45;;;1.30;;
54787;SDS011;59598;48.112;16.280;2022-09-20T13:16:30;3.58;;;2.70;;
54787;SDS011;59598;48.112;16.280;2022-09-20T13:24:36;1.20;;;1.10;;
54787;SDS011;59598;48.112;16.280;2022-09-20T13:27:21;1.25;;;1.10;;
54787;SDS011;59598;48.112;16.280;2022-09-20T13:30:24;3.53;;;1.27;;
54787;SDS011;59598;48.112;16.280;2022-09-20T13:33:21;1.30;;;1.20;;
54787;SDS011;59598;48.112;16.280;2022-09-20T13:35:54;1.42;;;1.33;;
54787;SDS011;59598;48.112;16.280;2022-09-20T13:38:29;1.45;;;1.35;;
54787;SDS011;59598;48.112;16.280;2022-09-20T13:41:07;1.17;;;1.13;;
54787;SDS011;59598;48.112;16.280;2022-09-20T13:43:43;2.75;;;0.70;;
54787;SDS011;59598;48.112;16.280;2022-09-20T13:49:16;1.00;;;0.95;;
54787;SDS011;59598;48.112;16.280;2022-09-20T13:51:53;0.80;;;0.80;;
54787;SDS011;59598;48.112;16.280;2022-09-20T13:54:29;2.67;;;0.95;;
54787;SDS011;59598;48.112;16.280;2022-09-20T13:57:11;1.00;;;1.00;;
54787;SDS011;59598;48.112;16.280;2022-09-20T13:59:54;0.80;;;0.80;;
54787;SDS011;59598;48.112;16.280;2022-09-20T14:02:31;1.20;;;1.10;;
54787;SDS011;59598;48.112;16.280;2022-09-20T14:05:12;0.80;;;0.80;;
54787;SDS011;59598;48.112;16.280;2022-09-20T14:07:48;2.05;;;1.00;;
54787;SDS011;59598;48.112;16.280;2022-09-20T14:10:25;4.25;;;1.25;;
54787;SDS011;59598;48.112;16.280;2022-09-20T14:13:14;1.10;;;1.00;;
54787;SDS011;59598;48.112;16.280;2022-09-20T14:15:51;1.95;;;1.33;;
54787;SDS011;59598;48.112;16.280;2022-09-20T14:18:22;1.40;;;1.00;;
54787;SDS011;59598;48.112;16.280;2022-09-20T14:20:54;0.80;;;0.80;;
54787;SDS011;59598;48.112;16.280;2022-09-20T14:23:32;2.05;;;1.30;;
54787;SDS011;59598;48.112;16.280;2022-09-20T14:26:26;0.70;;;0.70;;
54787;SDS011;59598;48.112;16.280;2022-09-20T14:29:28;1.25;;;0.90;;
54787;SDS011;59598;48.112;16.280;2022-09-20T14:40:53;0.93;;;0.93;;
54787;SDS011;59598;48.112;16.280;2022-09-20T14:43:33;1.17;;;1.05;;
54787;SDS011;59598;48.112;16.280;2022-09-20T14:46:15;1.65;;;1.30;;
54787;SDS011;59598;48.112;16.280;2022-09-20T14:48:49;0.90;;;0.90;;
54787;SDS011;59598;48.112;16.280;2022-09-20T14:51:21;1.92;;;1.25;;
54787;SDS011;59598;48.112;16.280;2022-09-20T14:56:36;2.72;;;1.48;;
54787;SDS011;59598;48.112;16.280;2022-09-20T15:04:51;1.20;;;1.10;;
54787;SDS011;59598;48.112;16.280;2022-09-20T15:07:26;1.33;;;1.10;;
54787;SDS011;59598;48.112;16.280;2022-09-20T15:09:57;2.35;;;1.10;;
54787;SDS011;59598;48.112;16.280;2022-09-20T15:12:31;1.10;;;0.97;;
54787;SDS011;59598;48.112;16.280;2022-09-20T15:15:10;0.95;;;0.95;;
54787;SDS011;59598;48.112;16.280;2022-09-20T15:17:48;1.45;;;1.17;;
54787;SDS011;59598;48.112;16.280;2022-09-20T15:20:25;1.30;;;1.20;;
54787;SDS011;59598;48.112;16.280;2022-09-20T15:22:58;1.35;;;1.10;;
54787;SDS011;59598;48.112;16.280;2022-09-20T15:25:36;1.27;;;0.98;;
54787;SDS011;59598;48.112;16.280;2022-09-20T15:28:12;1.52;;;1.20;;
54787;SDS011;59598;48.112;16.280;2022-09-20T15:30:47;1.67;;;1.15;;
54787;SDS011;59598;48.112;16.280;2022-09-20T15:33:21;1.85;;;1.42;;
54787;SDS011;59598;48.112;16.280;2022-09-20T15:35:54;2.70;;;1.25;;
54787;SDS011;59598;48.112;16.280;2022-09-20T15:38:28;3.40;;;1.60;;
54787;SDS011;59598;48.112;16.280;2022-09-20T15:41:00;1.08;;;1.00;;
54787;SDS011;59598;48.112;16.280;2022-09-20T15:43:37;1.55;;;1.00;;
54787;SDS011;59598;48.112;16.280;2022-09-20T15:46:18;1.92;;;1.60;;
54787;SDS011;59598;48.112;16.280;2022-09-20T15:49:00;1.08;;;0.90;;
54787;SDS011;59598;48.112;16.280;2022-09-20T15:51:40;1.00;;;1.00;;
54787;SDS011;59598;48.112;16.280;2022-09-20T15:54:12;2.55;;;1.40;;
54787;SDS011;59598;48.112;16.280;2022-09-20T15:56:47;2.00;;;1.33;;
54787;SDS011;59598;48.112;16.280;2022-09-20T15:59:21;3.45;;;1.60;;
54787;SDS011;59598;48.112;16.280;2022-09-20T16:01:53;2.00;;;1.63;;
54787;SDS011;59598;48.112;16.280;2022-09-20T16:04:27;2.28;;;1.30;;
54787;SDS011;59598;48.112;16.280;2022-09-20T16:06:59;1.00;;;0.90;;
54787;SDS011;59598;48.112;16.280;2022-09-20T16:09:36;1.00;;;0.90;;
54787;SDS011;59598;48.112;16.280;2022-09-20T16:12:08;4.20;;;1.60;;
54787;SDS011;59598;48.112;16.280;2022-09-20T16:14:40;1.20;;;1.10;;
54787;SDS011;59598;48.112;16.280;2022-09-20T16:17:11;0.73;;;0.73;;
54787;SDS011;59598;48.112;16.280;2022-09-20T16:19:46;1.13;;;0.90;;
54787;SDS011;59598;48.112;16.280;2022-09-20T16:22:18;2.17;;;1.13;;
54787;SDS011;59598;48.112;16.280;2022-09-20T16:24:50;1.63;;;1.27;;
54787;SDS011;59598;48.112;16.280;2022-09-20T16:27:21;2.58;;;1.48;;
54787;SDS011;59598;48.112;16.280;2022-09-20T16:32:30;3.65;;;1.92;;
54787;SDS011;59598;48.112;16.280;2022-09-20T16:35:01;1.15;;;0.95;;
54787;SDS011;59598;48.112;16.280;2022-09-20T16:37:37;1.10;;;1.00;;
54787;SDS011;59598;48.112;16.280;2022-09-20T16:40:09;1.20;;;1.10;;
54787;SDS011;59598;48.112;16.280;2022-09-20T16:42:43;1.42;;;1.00;;
54787;SDS011;59598;48.112;16.280;2022-09-20T16:45:17;1.00;;;0.90;;
54787;SDS011;59598;48.112;16.280;2022-09-20T16:47:51;1.40;;;1.27;;
54787;SDS011;59598;48.112;16.280;2022-09-20T16:50:27;0.70;;;0.70;;
54787;SDS011;59598;48.112;16.280;2022-09-20T16:52:59;1.38;;;0.90;;
54787;SDS011;59598;48.112;16.280;2022-09-20T16:55:31;0.98;;;0.98;;
54787;SDS011;59598;48.112;16.280;2022-09-20T16:58:03;0.70;;;0.70;;
54787;SDS011;59598;48.112;16.280;2022-09-20T17:00:38;1.60;;;0.98;;
54787;SDS011;59598;48.112;16.280;2022-09-20T17:03:10;0.90;;;0.90;;
54787;SDS011;59598;48.112;16.280;2022-09-20T17:05:42;0.95;;;0.93;;
54787;SDS011;59598;48.112;16.280;2022-09-20T17:08:16;1.30;;;0.80;;
54787;SDS011;59598;48.112;16.280;2022-09-20T17:10:47;0.98;;;0.90;;
54787;SDS011;59598;48.112;16.280;2022-09-20T17:13:21;1.02;;;0.75;;
54787;SDS011;59598;48.112;16.280;2022-09-20T17:16:01;2.78;;;1.30;;
54787;SDS011;59598;48.112;16.280;2022-09-20T17:18:44;0.73;;;0.73;;
54787;SDS011;59598;48.112;16.280;2022-09-20T17:21:22;1.00;;;0.90;;
54787;SDS011;59598;48.112;16.280;2022-09-20T17:23:58;1.23;;;1.10;;
54787;SDS011;59598;48.112;16.280;2022-09-20T17:26:30;0.85;;;0.85;;
54787;SDS011;59598;48.112;16.280;2022-09-20T17:29:08;0.80;;;0.80;;
54787;SDS011;59598;48.112;16.280;2022-09-20T17:31:48;2.25;;;1.33;;
54787;SDS011;59598;48.112;16.280;2022-09-20T17:34:28;2.00;;;1.42;;
54787;SDS011;59598;48.112;16.280;2022-09-20T17:37:01;1.58;;;1.13;;
54787;SDS011;59598;48.112;16.280;2022-09-20T17:39:34;3.20;;;1.40;;
54787;SDS011;59598;48.112;16.280;2022-09-20T17:42:10;3.42;;;2.60;;
54787;SDS011;59598;48.112;16.280;2022-09-20T17:44:42;2.35;;;2.15;;
54787;SDS011;59598;48.112;16.280;2022-09-20T17:47:18;1.73;;;1.25;;
54787;SDS011;59598;48.112;16.280;2022-09-20T17:49:54;1.48;;;1.02;;
54787;SDS011;59598;48.112;16.280;2022-09-20T17:52:26;1.23;;;1.08;;
54787;SDS011;59598;48.112;16.280;2022-09-20T17:54:57;1.13;;;1.00;;
54787;SDS011;59598;48.112;16.280;2022-09-20T17:57:29;1.08;;;1.00;;
54787;SDS011;59598;48.112;16.280;2022-09-20T18:00:03;3.17;;;1.23;;
54787;SDS011;59598;48.112;16.280;2022-09-20T18:02:37;0.98;;;0.80;;
54787;SDS011;59598;48.112;16.280;2022-09-20T18:05:08;3.97;;;2.38;;
54787;SDS011;59598;48.112;16.280;2022-09-20T18:07:40;3.55;;;1.60;;
54787;SDS011;59598;48.112;16.280;2022-09-20T18:10:11;5.20;;;2.92;;
54787;SDS011;59598;48.112;16.280;2022-09-20T18:12:45;1.20;;;1.10;;
54787;SDS011;59598;48.112;16.280;2022-09-20T18:15:16;2.22;;;1.52;;
54787;SDS011;59598;48.112;16.280;2022-09-20T18:17:48;1.40;;;1.00;;
54787;SDS011;59598;48.112;16.280;2022-09-20T18:20:20;3.08;;;1.20;;
54787;SDS011;59598;48.112;16.280;2022-09-20T18:22:51;1.10;;;0.80;;
54787;SDS011;59598;48.112;16.280;2022-09-20T18:25:23;1.98;;;0.90;;
54787;SDS011;59598;48.112;16.280;2022-09-20T18:27:54;1.45;;;1.35;;
54787;SDS011;59598;48.112;16.280;2022-09-20T18:30:26;2.05;;;1.42;;
54787;SDS011;59598;48.112;16.280;2022-09-20T18:32:57;1.70;;;1.15;;
54787;SDS011;59598;48.112;16.280;2022-09-20T18:35:31;1.30;;;1.10;;
54787;SDS011;59598;48.112;16.280;2022-09-20T18:38:12;1.05;;;0.95;;
54787;SDS011;59598;48.112;16.280;2022-09-20T18:40:55;1.00;;;1.00;;
54787;SDS011;59598;48.112;16.280;2022-09-20T18:43:33;0.80;;;0.80;;
54787;SDS011;59598;48.112;16.280;2022-09-20T18:46:05;4.50;;;1.50;;
54787;SDS011;59598;48.112;16.280;2022-09-20T18:48:40;1.25;;;1.00;;
54787;SDS011;59598;48.112;16.280;2022-09-20T18:51:11;1.58;;;1.48;;
54787;SDS011;59598;48.112;16.280;2022-09-20T18:53:48;1.42;;;1.33;;
54787;SDS011;59598;48.112;16.280;2022-09-20T18:59:07;0.93;;;0.90;;
54787;SDS011;59598;48.112;16.280;2022-09-20T19:02:04;1.35;;;1.10;;
54787;SDS011;59598;48.112;16.280;2022-09-20T19:16:15;2.15;;;1.75;;
54787;SDS011;59598;48.112;16.280;2022-09-20T19:22:14;0.70;;;0.70;;
54787;SDS011;59598;48.112;16.280;2022-09-20T19:28:01;0.70;;;0.70;;
54787;SDS011;59598;48.112;16.280;2022-09-20T19:30:33;2.00;;;0.95;;
54787;SDS011;59598;48.112;16.280;2022-09-20T19:33:09;2.53;;;1.20;;
54787;SDS011;59598;48.112;16.280;2022-09-20T19:35:48;2.17;;;1.08;;
54787;SDS011;59598;48.112;16.280;2022-09-20T19:44:41;1.65;;;1.30;;
54787;SDS011;59598;48.112;16.280;2022-09-20T19:50:40;1.27;;;1.10;;
54787;SDS011;59598;48.112;16.280;2022-09-20T19:53:24;2.30;;;1.40;;
54787;SDS011;59598;48.112;16.280;2022-09-20T19:58:55;1.25;;;1.00;;
54787;SDS011;59598;48.112;16.280;2022-09-20T20:01:27;1.30;;;1.02;;
54787;SDS011;59598;48.112;16.280;2022-09-20T20:04:02;1.42;;;1.25;;
54787;SDS011;59598;48.112;16.280;2022-09-20T20:09:54;2.45;;;1.40;;
54787;SDS011;59598;48.112;16.280;2022-09-20T20:15:39;1.33;;;1.00;;
54787;SDS011;59598;48.112;16.280;2022-09-20T20:24:31;0.80;;;0.65;;
54787;SDS011;59598;48.112;16.280;2022-09-20T20:27:25;1.83;;;0.90;;
54787;SDS011;59598;48.112;16.280;2022-09-20T20:29:58;1.20;;;0.93;;
54787;SDS011;59598;48.112;16.280;2022-09-20T20:32:30;1.00;;;1.00;;
54787;SDS011;59598;48.112;16.280;2022-09-20T20:37:36;1.95;;;1.10;;
54787;SDS011;59598;48.112;16.280;2022-09-20T20:40:10;3.22;;;2.10;;
54787;SDS011;59598;48.112;16.280;2022-09-20T20:42:43;3.45;;;1.92;;
54787;SDS011;59598;48.112;16.280;2022-09-20T20:45:18;3.03;;;2.15;;
54787;SDS011;59598;48.112;16.280;2022-09-20T20:47:55;2.45;;;1.73;;
54787;SDS011;59598;48.112;16.280;2022-09-20T20:50:28;2.42;;;1.35;;
54787;SDS011;59598;48.112;16.280;2022-09-20T20:53:03;3.78;;;1.90;;
54787;SDS011;59598;48.112;16.280;2022-09-20T20:55:36;1.42;;;1.00;;
54787;SDS011;59598;48.112;16.280;2022-09-20T20:58:08;2.78;;;0.68;;
54787;SDS011;59598;48.112;16.280;2022-09-20T21:00:40;2.92;;;0.80;;
54787;SDS011;59598;48.112;16.280;2022-09-20T21:03:11;1.52;;;1.25;;
54787;SDS011;59598;48.112;16.280;2022-09-20T21:05:51;0.95;;;0.95;;
54787;SDS011;59598;48.112;16.280;2022-09-20T21:08:25;2.92;;;1.25;;
54787;SDS011;59598;48.112;16.280;2022-09-20T21:11:15;1.00;;;0.90;;
54787;SDS011;59598;48.112;16.280;2022-09-20T21:13:53;1.25;;;1.10;;
54787;SDS011;59598;48.112;16.280;2022-09-20T21:16:31;1.30;;;1.20;;
54787;SDS011;59598;48.112;16.280;2022-09-20T21:19:09;0.95;;;0.90;;
54787;SDS011;59598;48.112;16.280;2022-09-20T21:21:45;1.25;;;1.13;;
54787;SDS011;59598;48.112;16.280;2022-09-20T21:24:17;1.38;;;1.27;;
54787;SDS011;59598;48.112;16.280;2022-09-20T21:26:51;1.20;;;1.10;;
54787;SDS011;59598;48.112;16.280;2022-09-20T21:29:23;1.80;;;1.55;;
54787;SDS011;59598;48.112;16.280;2022-09-20T21:31:54;2.47;;;1.52;;
54787;SDS011;59598;48.112;16.280;2022-09-20T21:34:28;1.55;;;1.23;;
54787;SDS011;59598;48.112;16.280;2022-09-20T21:36:59;1.20;;;1.10;;
54787;SDS011;59598;48.112;16.280;2022-09-20T21:39:31;1.23;;;1.13;;
54787;SDS011;59598;48.112;16.280;2022-09-20T21:44:37;1.20;;;1.10;;
54787;SDS011;59598;48.112;16.280;2022-09-20T21:47:11;2.97;;;1.20;;
54787;SDS011;59598;48.112;16.280;2022-09-20T21:49:49;1.35;;;1.17;;
54787;SDS011;59598;48.112;16.280;2022-09-20T21:52:24;2.65;;;1.33;;